createdAt,value
2023-05-26T00:01:29.558Z,9.70
2023-05-26T00:04:32.753Z,11.10
2023-05-26T00:07:38.250Z,9.43
2023-05-26T00:10:40.726Z,11.05
2023-05-26T00:13:43.007Z,9.57
2023-05-26T00:16:45.834Z,10.57
2023-05-26T00:19:50.298Z,10.37
2023-05-26T00:22:52.449Z,10.68
2023-05-26T00:25:54.407Z,10.93
2023-05-26T00:28:56.749Z,13.75
2023-05-26T00:31:58.782Z,10.85
2023-05-26T00:35:01.936Z,12.47
2023-05-26T00:38:03.920Z,11.00
2023-05-26T00:41:06.182Z,11.02
2023-05-26T00:44:08.305Z,10.45
2023-05-26T00:47:10.938Z,12.25
2023-05-26T00:50:14.047Z,11.70
2023-05-26T00:53:18.941Z,12.32
2023-05-26T00:56:21.036Z,12.23
2023-05-26T00:59:23.444Z,12.50
2023-05-26T01:02:26.630Z,11.43
2023-05-26T01:05:28.720Z,10.57
2023-05-26T01:08:31.276Z,12.05
2023-05-26T01:11:41.625Z,10.20
2023-05-26T01:14:50.868Z,10.93
2023-05-26T01:18:06.675Z,11.75
2023-05-26T01:21:12.170Z,11.43
2023-05-26T01:24:44.525Z,9.95
2023-05-26T01:28:11.369Z,8.23
2023-05-26T01:31:13.839Z,9.98
2023-05-26T01:34:16.941Z,14.95
2023-05-26T01:37:18.975Z,10.97
2023-05-26T01:40:21.127Z,10.75
2023-05-26T01:43:43.649Z,9.07
2023-05-26T01:46:50.684Z,10.52
2023-05-26T01:49:53.002Z,12.10
2023-05-26T01:52:58.344Z,14.67
2023-05-26T01:56:01.726Z,12.32
2023-05-26T01:59:04.285Z,10.57
2023-05-26T02:02:09.693Z,12.35
2023-05-26T02:05:13.644Z,9.63
2023-05-26T02:08:15.755Z,11.40
2023-05-26T02:11:17.880Z,17.73
2023-05-26T02:14:19.871Z,10.18
2023-05-26T02:17:22.017Z,10.57
2023-05-26T02:20:24.971Z,10.38
2023-05-26T02:23:28.496Z,15.83
2023-05-26T02:26:30.508Z,11.38
2023-05-26T02:29:32.459Z,10.25
2023-05-26T02:32:36.080Z,12.25
2023-05-26T02:35:38.168Z,12.40
2023-05-26T02:38:41.890Z,12.30
2023-05-26T02:41:43.917Z,14.25
2023-05-26T02:44:46.107Z,12.27
2023-05-26T02:47:48.449Z,14.88
2023-05-26T02:50:50.719Z,12.10
2023-05-26T02:53:52.759Z,16.87
2023-05-26T02:56:54.761Z,13.15
2023-05-26T02:59:56.749Z,11.38
2023-05-26T03:02:58.793Z,10.15
2023-05-26T03:06:00.936Z,13.65
2023-05-26T03:09:03.663Z,11.33
2023-05-26T03:12:07.552Z,11.00
2023-05-26T03:15:12.739Z,13.50
2023-05-26T03:18:15.580Z,15.88
2023-05-26T03:21:46.346Z,12.52
2023-05-26T03:24:41.099Z,12.87
2023-05-26T03:27:43.084Z,12.55
2023-05-26T03:30:45.199Z,16.35
2023-05-26T03:33:47.148Z,13.50
2023-05-26T03:36:50.356Z,14.75
2023-05-26T03:40:01.365Z,14.93
2023-05-26T03:43:06.078Z,15.32
2023-05-26T03:46:17.596Z,18.08
2023-05-26T03:49:20.351Z,13.77
2023-05-26T03:52:22.433Z,16.52
2023-05-26T03:55:24.502Z,13.97
2023-05-26T03:58:26.573Z,15.57
2023-05-26T04:01:29.149Z,12.30
2023-05-26T04:04:32.234Z,13.68
2023-05-26T04:07:34.442Z,14.88
2023-05-26T04:10:36.487Z,15.07
2023-05-26T04:13:39.882Z,15.82
2023-05-26T04:16:41.912Z,15.98
2023-05-26T04:19:44.013Z,15.90
2023-05-26T04:22:46.516Z,13.48
2023-05-26T04:25:49.332Z,15.67
2023-05-26T04:29:07.431Z,15.52
2023-05-26T04:32:27.835Z,15.90
2023-05-26T04:35:31.656Z,15.07
2023-05-26T04:38:33.653Z,12.88
2023-05-26T04:41:35.971Z,24.33
2023-05-26T04:44:39.226Z,14.10
2023-05-26T04:47:41.660Z,13.35
2023-05-26T04:50:43.787Z,12.57
2023-05-26T04:53:45.787Z,17.17
2023-05-26T04:56:47.851Z,12.20
2023-05-26T04:59:50.880Z,15.45
2023-05-26T05:02:54.061Z,14.98
2023-05-26T05:06:15.273Z,14.50
2023-05-26T05:09:17.383Z,14.77
2023-05-26T05:12:19.403Z,12.03
2023-05-26T05:15:21.785Z,12.60
2023-05-26T05:18:23.985Z,12.85
2023-05-26T05:21:25.980Z,9.75
2023-05-26T05:24:31.661Z,12.30
2023-05-26T05:27:33.640Z,9.80
2023-05-26T05:30:36.429Z,9.90
2023-05-26T05:33:40.003Z,10.63
2023-05-26T05:36:42.166Z,10.40
2023-05-26T05:39:44.250Z,7.50
2023-05-26T05:42:46.356Z,11.07
2023-05-26T05:45:48.331Z,9.32
2023-05-26T05:49:08.879Z,7.75
2023-05-26T05:52:15.665Z,8.68
2023-05-26T05:55:17.739Z,9.07
2023-05-26T05:58:19.724Z,8.97
2023-05-26T06:01:23.333Z,8.35
2023-05-26T06:04:26.354Z,8.38
2023-05-26T06:07:28.403Z,8.63
2023-05-26T06:10:30.489Z,9.25
2023-05-26T06:13:33.616Z,9.90
2023-05-26T06:16:35.903Z,10.13
2023-05-26T06:19:37.978Z,9.23
2023-05-26T06:22:40.196Z,8.18
2023-05-26T06:25:42.319Z,12.20
2023-05-26T06:28:45.566Z,11.60
2023-05-26T06:31:48.669Z,9.60
2023-05-26T06:34:54.178Z,9.85
2023-05-26T06:37:56.595Z,10.50
2023-05-26T06:40:58.681Z,12.70
2023-05-26T06:44:02.166Z,11.03
2023-05-26T06:47:06.027Z,10.35
2023-05-26T06:50:10.935Z,13.23
2023-05-26T06:53:13.882Z,10.75
2023-05-26T06:56:16.145Z,12.43
2023-05-26T06:59:18.188Z,11.63
2023-05-26T07:02:20.430Z,12.45
2023-05-26T07:05:24.292Z,10.82
2023-05-26T07:08:28.180Z,10.93
2023-05-26T07:11:40.400Z,8.90
2023-05-26T07:14:56.846Z,11.27
2023-05-26T07:17:58.810Z,11.50
2023-05-26T07:21:01.753Z,11.38
2023-05-26T07:24:03.962Z,9.43
2023-05-26T07:27:06.527Z,10.73
2023-05-26T07:30:09.325Z,14.93
2023-05-26T07:33:21.626Z,10.75
2023-05-26T07:36:23.924Z,10.05
2023-05-26T07:39:25.948Z,13.20
2023-05-26T07:42:27.971Z,11.27
2023-05-26T07:45:30.576Z,10.17
2023-05-26T07:48:32.745Z,10.10
2023-05-26T07:51:34.776Z,10.65
2023-05-26T07:54:37.922Z,11.45
2023-05-26T07:57:40.041Z,11.82
2023-05-26T08:00:42.076Z,11.87
2023-05-26T08:03:44.496Z,13.40
2023-05-26T08:06:46.571Z,10.80
2023-05-26T08:09:48.646Z,10.88
2023-05-26T08:12:52.431Z,11.90
2023-05-26T08:15:54.422Z,12.60
2023-05-26T08:18:56.406Z,11.15
2023-05-26T08:21:58.378Z,11.48
2023-05-26T08:25:00.346Z,10.75
2023-05-26T08:28:02.354Z,12.35
2023-05-26T08:31:04.452Z,13.60
2023-05-26T08:34:07.391Z,11.52
2023-05-26T08:37:14.468Z,12.57
2023-05-26T08:40:16.653Z,8.43
2023-05-26T08:43:30.666Z,9.57
2023-05-26T08:46:40.760Z,9.10
2023-05-26T08:49:50.426Z,11.30
2023-05-26T08:56:14.494Z,10.75
2023-05-26T08:59:18.194Z,10.20
2023-05-26T09:02:20.403Z,11.63
2023-05-26T09:05:23.478Z,10.35
2023-05-26T09:08:26.768Z,12.45
2023-05-26T09:11:29.162Z,8.95
2023-05-26T09:14:31.193Z,11.65
2023-05-26T09:17:36.159Z,15.00
2023-05-26T09:20:42.607Z,12.18
2023-05-26T09:23:51.077Z,9.98
2023-05-26T09:26:53.451Z,10.27
2023-05-26T09:29:59.345Z,13.20
2023-05-26T09:33:01.599Z,17.00
2023-05-26T09:36:04.099Z,12.98
2023-05-26T09:39:09.014Z,15.63
2023-05-26T09:42:11.384Z,16.15
2023-05-26T09:45:13.476Z,10.45
2023-05-26T09:48:16.287Z,13.57
2023-05-26T09:51:27.650Z,12.57
2023-05-26T09:54:33.314Z,13.63
2023-05-26T09:57:38.391Z,13.00
2023-05-26T10:00:41.892Z,10.98
2023-05-26T10:03:44.358Z,9.40
2023-05-26T10:06:49.878Z,11.68
2023-05-26T10:09:59.294Z,9.98
2023-05-26T10:13:02.457Z,9.85
2023-05-26T10:16:06.042Z,9.52
2023-05-26T10:19:08.357Z,12.53
2023-05-26T10:22:17.894Z,11.80
2023-05-26T10:25:44.287Z,10.45
2023-05-26T10:29:05.099Z,13.63
2023-05-26T10:32:07.295Z,11.55
2023-05-26T10:35:21.215Z,16.83
2023-05-26T10:38:36.717Z,14.13
2023-05-26T10:41:40.692Z,10.82
2023-05-26T10:44:55.509Z,8.45
2023-05-26T10:48:00.382Z,9.48
2023-05-26T10:51:16.170Z,9.47
2023-05-26T10:54:22.377Z,9.02
2023-05-26T10:57:32.433Z,14.35
2023-05-26T11:00:36.353Z,8.73
2023-05-26T11:03:47.182Z,8.77
2023-05-26T11:07:01.421Z,9.20
2023-05-26T11:10:07.191Z,9.02
2023-05-26T11:13:12.780Z,8.82
2023-05-26T11:16:24.740Z,9.43
2023-05-26T11:19:33.962Z,12.32
2023-05-26T11:22:36.282Z,9.33
2023-05-26T11:25:48.166Z,9.32
2023-05-26T11:28:51.316Z,8.70
2023-05-26T11:31:53.495Z,9.30
2023-05-26T11:34:56.247Z,10.55
2023-05-26T11:37:58.282Z,9.80
2023-05-26T11:41:00.473Z,12.05
2023-05-26T11:44:09.453Z,10.32
2023-05-26T11:47:15.632Z,8.65
2023-05-26T11:50:18.943Z,8.57
2023-05-26T11:53:21.299Z,12.37
2023-05-26T11:56:34.351Z,8.98
2023-05-26T11:59:36.515Z,10.60
2023-05-26T12:02:38.733Z,9.65
2023-05-26T12:05:40.819Z,8.90
2023-05-26T12:08:47.749Z,9.50
2023-05-26T12:11:53.899Z,10.82
2023-05-26T12:15:06.996Z,8.50
2023-05-26T12:18:11.057Z,8.43
2023-05-26T12:21:13.393Z,8.52
2023-05-26T12:24:34.724Z,11.20
2023-05-26T12:27:40.593Z,9.95
2023-05-26T12:33:47.862Z,10.75
2023-05-26T12:36:51.228Z,10.02
2023-05-26T12:39:53.335Z,10.13
2023-05-26T12:42:56.091Z,8.55
2023-05-26T12:45:59.331Z,9.15
2023-05-26T12:49:02.286Z,11.10
2023-05-26T12:52:04.395Z,9.38
2023-05-26T12:55:06.576Z,9.93
2023-05-26T12:58:08.755Z,10.98
2023-05-26T13:01:12.140Z,9.52
2023-05-26T13:04:14.413Z,10.32
2023-05-26T13:07:16.569Z,10.38
2023-05-26T13:10:18.801Z,9.27
2023-05-26T13:13:21.336Z,9.05
2023-05-26T13:16:26.204Z,9.70
2023-05-26T13:19:28.753Z,10.82
2023-05-26T13:22:31.800Z,8.52
2023-05-26T13:25:35.222Z,8.67
2023-05-26T13:28:37.284Z,10.88
2023-05-26T13:31:41.306Z,9.23
2023-05-26T13:34:44.391Z,9.93
2023-05-26T13:37:46.487Z,9.73
2023-05-26T13:40:48.482Z,8.00
2023-05-26T13:43:50.520Z,9.32
2023-05-26T13:46:52.730Z,12.02
2023-05-26T13:49:55.888Z,11.05
2023-05-26T13:53:02.801Z,9.48
2023-05-26T13:56:14.173Z,8.20
2023-05-26T13:59:27.085Z,8.15
2023-05-26T14:02:30.513Z,9.63
2023-05-26T14:05:52.568Z,9.60
2023-05-26T14:08:57.088Z,8.10
2023-05-26T14:11:59.149Z,8.03
2023-05-26T14:15:02.904Z,8.05
2023-05-26T14:18:08.518Z,9.13
2023-05-26T14:21:44.626Z,8.13
2023-05-26T14:24:33.511Z,9.93
2023-05-26T14:27:37.346Z,8.80
2023-05-26T14:30:40.512Z,8.90
2023-05-26T14:33:42.602Z,9.10
2023-05-26T14:36:44.613Z,8.25
2023-05-26T14:39:46.679Z,9.80
2023-05-26T14:42:48.797Z,9.70
2023-05-26T14:45:50.878Z,8.27
2023-05-26T14:48:52.865Z,8.95
2023-05-26T14:51:54.912Z,8.52
2023-05-26T14:54:57.040Z,6.43
2023-05-26T14:57:59.130Z,8.13
2023-05-26T15:01:01.546Z,8.35
2023-05-26T15:07:08.966Z,8.70
2023-05-26T15:10:13.679Z,8.68
2023-05-26T15:13:17.830Z,7.63
2023-05-26T15:16:19.889Z,8.88
2023-05-26T15:19:22.019Z,8.07
2023-05-26T15:22:24.107Z,8.50
2023-05-26T15:25:26.258Z,9.40
2023-05-26T15:28:28.573Z,10.47
2023-05-26T15:31:30.888Z,12.48
2023-05-26T15:34:32.913Z,11.48
2023-05-26T15:37:39.401Z,11.77
2023-05-26T15:40:41.967Z,9.02
2023-05-26T15:43:44.192Z,8.10
2023-05-26T15:46:46.272Z,9.35
2023-05-26T15:49:48.263Z,8.88
2023-05-26T15:52:50.432Z,8.05
2023-05-26T15:55:52.425Z,10.50
2023-05-26T15:58:54.490Z,9.17
2023-05-26T16:01:56.572Z,9.73
2023-05-26T16:04:58.549Z,10.20
2023-05-26T16:08:00.642Z,10.77
2023-05-26T16:11:03.037Z,8.25
2023-05-26T16:14:05.297Z,8.53
2023-05-26T16:17:07.476Z,9.15
2023-05-26T16:20:10.099Z,9.73
2023-05-26T16:23:12.374Z,9.05
2023-05-26T16:26:14.424Z,11.63
2023-05-26T16:29:16.961Z,10.50
2023-05-26T16:32:18.981Z,7.70
2023-05-26T16:35:21.748Z,8.50
2023-05-26T16:38:25.012Z,7.55
2023-05-26T16:41:27.718Z,11.80
2023-05-26T16:44:29.808Z,8.77
2023-05-26T16:47:33.269Z,8.50
2023-05-26T16:50:35.344Z,7.00
2023-05-26T16:53:37.468Z,8.75
2023-05-26T16:56:40.669Z,6.72
2023-05-26T16:59:42.737Z,6.63
2023-05-26T17:02:45.653Z,6.57
2023-05-26T17:05:47.792Z,7.65
2023-05-26T17:08:49.773Z,9.55
2023-05-26T17:11:51.828Z,7.70
2023-05-26T17:14:54.036Z,7.43
2023-05-26T17:17:56.796Z,9.05
2023-05-26T17:20:58.896Z,6.85
2023-05-26T17:24:01.462Z,9.63
2023-05-26T17:27:03.544Z,8.75
2023-05-26T17:30:06.653Z,7.50
2023-05-26T17:33:08.913Z,10.15
2023-05-26T17:36:11.128Z,7.80
2023-05-26T17:39:13.467Z,8.88
2023-05-26T17:42:15.993Z,9.43
2023-05-26T17:45:17.941Z,7.87
2023-05-26T17:48:20.215Z,8.65
2023-05-26T17:51:22.555Z,9.05
2023-05-26T17:54:29.422Z,7.70
2023-05-26T17:57:31.653Z,8.90
2023-05-26T18:00:33.684Z,8.83
2023-05-26T18:03:36.440Z,7.47
2023-05-26T18:06:38.659Z,8.27
2023-05-26T18:09:41.142Z,9.00
2023-05-26T18:12:44.047Z,10.75
2023-05-26T18:15:47.014Z,9.17
2023-05-26T18:18:49.025Z,8.93
2023-05-26T18:21:51.381Z,9.73
2023-05-26T18:24:53.508Z,9.95
2023-05-26T18:27:56.295Z,9.80
2023-05-26T18:30:58.506Z,10.27
2023-05-26T18:34:09.456Z,10.93
2023-05-26T18:37:18.416Z,8.13
2023-05-26T18:40:20.955Z,7.78
2023-05-26T18:43:23.013Z,10.75
2023-05-26T18:46:25.431Z,10.23
2023-05-26T18:49:27.659Z,9.73
2023-05-26T18:52:29.896Z,9.73
2023-05-26T18:55:33.505Z,10.27
2023-05-26T18:58:35.783Z,9.02
2023-05-26T19:01:37.962Z,8.97
2023-05-26T19:04:40.080Z,11.52
2023-05-26T19:07:42.717Z,9.98
2023-05-26T19:10:44.941Z,11.95
2023-05-26T19:13:46.993Z,10.70
2023-05-26T19:16:49.407Z,12.00
2023-05-26T19:19:53.791Z,9.80
2023-05-26T19:22:57.153Z,11.32
2023-05-26T19:25:59.297Z,10.75
2023-05-26T19:29:04.489Z,11.40
2023-05-26T19:32:07.200Z,10.77
2023-05-26T19:35:10.217Z,12.32
2023-05-26T19:38:12.219Z,10.65
2023-05-26T19:41:15.197Z,11.98
2023-05-26T19:44:17.439Z,10.52
2023-05-26T19:47:19.637Z,9.30
2023-05-26T19:50:21.992Z,10.05
2023-05-26T19:53:24.414Z,10.18
2023-05-26T19:56:27.095Z,9.75
2023-05-26T19:59:29.182Z,13.25
2023-05-26T20:02:31.344Z,11.97
2023-05-26T20:05:33.830Z,11.35
2023-05-26T20:08:36.369Z,11.25
2023-05-26T20:11:38.584Z,12.25
2023-05-26T20:14:40.746Z,12.77
2023-05-26T20:17:42.732Z,11.97
2023-05-26T20:20:45.002Z,16.70
2023-05-26T20:23:47.152Z,15.73
2023-05-26T20:26:49.191Z,11.63
2023-05-26T20:29:51.428Z,14.10
2023-05-26T20:32:53.551Z,13.47
2023-05-26T20:35:55.760Z,12.68
2023-05-26T20:38:58.112Z,13.75
2023-05-26T20:42:00.174Z,16.45
2023-05-26T20:45:02.266Z,12.70
2023-05-26T20:48:04.518Z,14.00
2023-05-26T20:51:06.857Z,14.02
2023-05-26T20:54:10.039Z,12.35
2023-05-26T20:57:12.150Z,12.80
2023-05-26T21:00:15.246Z,12.68
2023-05-26T21:03:17.364Z,9.57
2023-05-26T21:06:19.652Z,11.25
2023-05-26T21:09:21.664Z,10.45
2023-05-26T21:12:23.679Z,9.88
2023-05-26T21:15:25.921Z,8.57
2023-05-26T21:18:28.003Z,10.13
2023-05-26T21:21:30.080Z,8.73
2023-05-26T21:24:32.410Z,8.93
2023-05-26T21:27:34.611Z,8.23
2023-05-26T21:30:36.682Z,7.97
2023-05-26T21:33:40.100Z,9.10
2023-05-26T21:36:42.127Z,10.02
2023-05-26T21:39:44.116Z,9.73
2023-05-26T21:42:46.187Z,7.57
2023-05-26T21:45:49.153Z,8.48
2023-05-26T21:48:51.246Z,7.27
2023-05-26T21:51:53.285Z,8.27
2023-05-26T21:54:55.251Z,8.85
2023-05-26T21:57:57.534Z,8.15
2023-05-26T22:00:59.527Z,9.02
2023-05-26T22:04:01.611Z,9.77
2023-05-26T22:07:03.633Z,8.82
2023-05-26T22:10:07.129Z,7.00
2023-05-26T22:13:09.124Z,8.60
2023-05-26T22:16:11.216Z,7.97
2023-05-26T22:19:13.349Z,8.40
2023-05-26T22:22:15.477Z,7.90
2023-05-26T22:25:17.765Z,7.68
2023-05-26T22:28:20.602Z,8.77
2023-05-26T22:31:22.651Z,6.70
2023-05-26T22:34:24.805Z,8.50
2023-05-26T22:37:26.904Z,9.85
2023-05-26T22:40:28.952Z,10.20
2023-05-26T22:43:30.988Z,10.45
2023-05-26T22:46:33.145Z,9.38
2023-05-26T22:49:35.140Z,9.03
2023-05-26T22:52:40.070Z,9.70
2023-05-26T22:56:08.955Z,13.75
2023-05-26T22:59:04.517Z,9.45
2023-05-26T23:02:06.593Z,11.00
2023-05-26T23:05:09.524Z,9.60
2023-05-26T23:08:13.340Z,10.88
2023-05-26T23:11:15.609Z,11.07
2023-05-26T23:14:17.906Z,9.57
2023-05-26T23:17:19.952Z,9.05
2023-05-26T23:20:22.013Z,9.33
2023-05-26T23:23:24.057Z,8.55
2023-05-26T23:26:26.521Z,9.65
2023-05-26T23:29:28.522Z,11.77
2023-05-26T23:32:30.756Z,10.70
2023-05-26T23:35:32.753Z,10.73
2023-05-26T23:38:36.143Z,12.60
2023-05-26T23:41:38.173Z,9.95
2023-05-26T23:44:40.263Z,10.68
2023-05-26T23:47:42.309Z,10.90
2023-05-26T23:50:44.364Z,10.37
2023-05-26T23:53:46.593Z,9.50
2023-05-26T23:56:48.584Z,11.48
2023-05-26T23:59:50.840Z,9.57
